Imperial, CA (92251)

8:46 PM PDT on September 04, 2015 (GMT -0700)
Imperial County | | Change Station
CLOSE
Current Station
Airport
Location: Imperial,
Elevation: -56 ft
Nearby Weather Stations

Elev -56 ft 32.83 °N, 115.58 °W | Updated 53 minutes ago

Partly Cloudy
Partly Cloudy
95 °F
Feels Like 94 °F
N
9
Wind Variable Wind from SE

Today
High -- | Low -- °F
--% Chance of Precip.
Yesterday
High -- | Low -- °F
Precip. -- in
6:18 AM 7:03 PM
Waning Gibbous, 53% visible
Pressure 29.67 in
Visibility 10.0 miles
Clouds Few 11000 ft
Heat Index 94 °F
Dew Point 59 °F
Humidity 30%
Rainfall 0.00 in
Snow Depth Not available.
UV 0 out of 12
Pollen 7.50 out of 12
Air Quality Not available.
Flu Activity Not available.
METAR KIPL 050253Z AUTO 13008KT 10SM FEW110 35/15 A2967 RMK AO2 SLP046 T03500150 53011
Pressure 29.67 in
Visibility 10.0 miles
Clouds Few 11000 ft
Heat Index 94 °F
Dew Point 59 °F
Humidity 30%
Rainfall 0.00 in
Snow Depth Not available.
UV 0 out of 12
Pollen 7.50 out of 12
Air Quality Not available.
Flu Activity Not available.
METAR KIPL 050253Z AUTO 13008KT 10SM FEW110 35/15 A2967 RMK AO2 SLP046 T03500150 53011

10-Day Weather Forecast

×

Almanac

Astronomy

Sep. 04, 2015 Rise Set
Actual Time
Civil Twilight
Nautical Twilight
Astronomical Twilight
Moon
Length of Visible Light
Length of Day
Tomorrow will be .
, % of the Moon is Illuminated

Today's Extremes

State Highs State Lows

Community

WunderPhotos

Upload Photos

1,852,408 photos uploaded!

WunderBlogs® & News

Nearby

Air Quality

  Air Quality AQ Index Pollutant
Not available.

Snow Depth

Station Depth Elevation

Earthquake Activity

City Distance Mag. Time & Date
Minimum magnitude displayed is 2.5.

Coastal Water Temperatures

Place Temperature

Stations

Nearby Weather Stations

Station Location Temp. Windchill Dew Point Humidity Wind Precip. Elev Updated Type